M I D A S
Marine Information and Data Acquisition System
Tripno 1201 of the Zeeleeuw from 2007-01-16 07:30:47 to 2007-01-16 16:02:14
Back to CruiseResearch ActivitiesStationsMapUnderway DataData graphs

EquipmentUnitsComment
TimeDGPSUTC
LatitudeDGPSDM.mWGS84
LongitudeDGPSDM.mWGS84
TemperatureSBE03/SBE38deg celciusITS90
ConductivitySBE21S/mITS90
SalinitySBE21 Practical Salinity Units
ChlorophylAChelsea fluorimeterg/lCalibrated in Aceton
Missing or incorrect values are displayed as -999
Sea surface data collected by the RV Zeeleeuw from 2007-01-16 07:34:15 to 2007-01-16 16:20:21
Time Latitude Longitude Temperature Conductivity Salinity ChlorophylA
2007-01-16 07:35:20 51°13.607 2°56.062 15.7665 0.068794 0.364424 -2.871232
2007-01-16 07:36:20 51°13.614 2°56.028 15.8329 0.068794 0.36441 -2.871232
2007-01-16 07:37:20 51°13.621 2°55.991 15.9476 0.068794 0.364403 -2.871232
2007-01-16 07:38:21 51°13.643 2°55.92 16.0186 0.068794 0.364376 -2.871232
2007-01-16 07:39:21 51°13.676 2°55.843 15.9397 0.068794 0.364348 -2.871232
2007-01-16 07:40:20 51°13.707 2°55.764 15.6245 0.068794 0.36432 -2.871232
2007-01-16 07:41:20 51°13.714 2°55.704 15.9602 0.068794 0.364286 -2.871232
2007-01-16 07:42:20 51°13.722 2°55.709 16.0229 0.068794 0.364286 -2.871232
2007-01-16 07:43:20 51°13.727 2°55.714 15.9858 0.068794 0.364252 -2.871232
2007-01-16 07:44:20 51°13.737 2°55.711 16.0982 0.068794 0.364265 -2.871232
2007-01-16 07:45:20 51°13.799 2°55.663 15.8878 0.068897 0.364772 -2.871232
2007-01-16 07:46:20 51°13.904 2°55.584 15.8992 0.068794 0.364231 -2.871232
2007-01-16 07:47:20 51°14.02 2°55.503 15.9752 0.068897 0.364779 -2.871232
2007-01-16 07:48:20 51°14.136 2°55.416 15.9746 0.068794 0.364203 -2.871232
2007-01-16 07:49:20 51°14.252 2°55.291 15.8872 0.068897 0.364765 -2.871232
2007-01-16 07:50:20 51°14.373 2°55.104 15.6634 0.068897 0.364758 -2.871232
2007-01-16 07:51:20 51°14.538 2°54.932 15.9623 0.068897 0.364765 -2.871232
2007-01-16 07:52:20 51°14.641 2°54.679 16.0019 0.068794 0.364252 -2.871232
2007-01-16 07:53:20 51°14.583 2°54.415 15.96 0.068794 0.364293 -2.871232
2007-01-16 07:54:20 51°14.457 2°54.219 15.7188 0.068897 0.364855 -2.871232
2007-01-16 07:55:20 51°14.405 2°53.919 15.7714 0.068794 0.364355 -2.871232
2007-01-16 07:56:20 51°14.32 2°53.636 15.7953 0.068794 0.364376 -2.871232
2007-01-16 07:57:20 51°14.194 2°53.378 15.7697 0.068794 0.364382 -2.871232
2007-01-16 07:58:20 51°14.067 2°53.114 15.8062 0.068794 0.364438 -2.871232
2007-01-16 07:59:20 51°13.942 2°52.849 15.7732 0.068794 0.364493 -2.871232
2007-01-16 08:00:20 51°13.818 2°52.581 15.7925 0.068794 0.364596 -2.871232
2007-01-16 08:01:20 51°13.695 2°52.313 15.8188 0.068794 0.364665 -2.871232
2007-01-16 08:02:20 51°13.578 2°52.038 15.7901 0.068691 0.364165 -2.871232
2007-01-16 08:03:20 51°13.467 2°51.758 15.838 0.068691 0.364206 -2.871232
2007-01-16 08:04:20 51°13.357 2°51.477 15.8525 0.068691 0.364261 -2.871232
2007-01-16 08:05:20 51°13.252 2°51.192 15.8153 0.068691 0.364344 -2.871232
2007-01-16 08:06:20 51°13.149 2°50.904 15.8427 0.068589 0.36385 -2.871232
2007-01-16 08:07:20 51°13.048 2°50.615 15.8604 0.068589 0.363926 -2.871232
2007-01-16 08:08:20 51°12.946 2°50.327 15.8491 0.068589 0.364002 -2.871232
2007-01-16 08:09:20 51°12.844 2°50.039 15.8905 0.068589 0.364078 -2.871232
2007-01-16 08:10:20 51°12.741 2°49.751 15.8964 0.068589 0.364147 -2.871232
2007-01-16 08:11:20 51°12.639 2°49.464 15.874 0.068589 0.364223 -2.871232
2007-01-16 08:12:20 51°12.538 2°49.176 15.9002 0.068589 0.364306 -2.871232
2007-01-16 08:13:20 51°12.436 2°48.891 15.895 0.068486 0.363818 -2.871232
2007-01-16 08:14:20 51°12.335 2°48.604 15.9382 0.068486 0.363908 -2.871232
2007-01-16 08:15:20 51°12.237 2°48.314 15.9156 0.068486 0.363998 -2.871232
2007-01-16 08:16:20 51°12.147 2°48.018 15.9676 0.068486 0.364102 -2.871232
2007-01-16 08:17:20 51°12.057 2°47.722 15.977 0.068383 0.363627 -2.871232
2007-01-16 08:18:20 51°11.969 2°47.425 15.9885 0.068383 0.363724 -2.871232
2007-01-16 08:19:20 51°11.886 2°47.124 15.9724 0.068486 0.364386 -2.871232
2007-01-16 08:20:20 51°11.802 2°46.822 16.0092 0.068383 0.363918 -2.871232
2007-01-16 08:21:20 51°11.718 2°46.522 15.9797 0.068383 0.364008 -2.871232
2007-01-16 08:22:20 51°11.635 2°46.222 16.0157 0.06828 0.363533 -2.871232
2007-01-16 08:23:20 51°11.553 2°45.922 16.0286 0.06828 0.363623 -2.871232
2007-01-16 08:24:20 51°11.47 2°45.623 16.0483 0.06828 0.36372 -2.871232
2007-01-16 08:25:20 51°11.386 2°45.326 16.0506 0.06828 0.363824 -2.871232
2007-01-16 08:26:20 51°11.303 2°45.027 16.0776 0.068177 0.363356 -2.871232
2007-01-16 08:27:20 51°11.221 2°44.731 16.0844 0.068177 0.363466 -2.871232
2007-01-16 08:28:20 51°11.139 2°44.434 16.0787 0.068177 0.36357 -2.871232
2007-01-16 08:29:20 51°11.056 2°44.137 16.1065 0.068074 0.363101 -2.871232
2007-01-16 08:30:20 51°10.974 2°43.839 16.1325 0.068074 0.363205 -2.871232
2007-01-16 08:31:20 51°10.891 2°43.543 16.1038 0.068074 0.36331 -2.871232
2007-01-16 08:32:20 51°10.808 2°43.246 16.119 0.068074 0.363414 -2.871232
2007-01-16 08:33:20 51°10.726 2°42.949 16.1521 0.068074 0.363511 -2.871232
2007-01-16 08:34:20 51°10.644 2°42.652 16.1808 0.067971 0.363041 -2.871232
2007-01-16 08:35:20 51°10.561 2°42.357 16.1873 0.067971 0.363152 -2.871232
2007-01-16 08:36:20 51°10.479 2°42.061 16.1969 0.067971 0.36325 -2.871232
2007-01-16 08:37:20 51°10.396 2°41.766 16.1956 0.067971 0.363354 -2.871232
2007-01-16 08:38:20 51°10.312 2°41.472 16.1891 0.067868 0.362884 -2.871232
2007-01-16 08:39:20 51°10.232 2°41.177 16.2205 0.067868 0.362981 -2.871232
2007-01-16 08:40:20 51°10.15 2°40.887 16.2259 0.067868 0.363085 -2.871232
2007-01-16 08:41:20 51°10.069 2°40.598 16.2473 0.067868 0.363183 -2.871232
2007-01-16 08:42:20 51°9.986 2°40.309 16.2365 0.067765 0.362719 -2.871232
2007-01-16 08:43:20 51°9.904 2°40.018 16.2372 0.067765 0.362823 -2.871232
2007-01-16 08:44:20 51°9.822 2°39.727 16.2732 0.067765 0.362928 -2.871232
2007-01-16 08:45:20 51°9.74 2°39.436 16.2916 0.067662 0.362457 -2.871232
2007-01-16 08:46:20 51°9.661 2°39.141 16.3016 0.067662 0.362561 -2.871232
2007-01-16 08:47:20 51°9.582 2°38.843 16.2971 0.067662 0.362665 -2.871232
2007-01-16 08:48:20 51°9.502 2°38.544 16.3187 0.06756 0.362201 -2.871232
2007-01-16 08:49:20 51°9.429 2°38.241 16.315 0.06756 0.362319 -2.871232
2007-01-16 08:50:20 51°9.356 2°37.937 16.3356 0.06756 0.362438 -2.871232
2007-01-16 08:51:20 51°9.283 2°37.633 16.3031 0.06756 0.362549 -2.871232
2007-01-16 08:52:20 51°9.212 2°37.329 16.3759 0.06756 0.362661 -2.871232
2007-01-16 08:53:20 51°9.144 2°37.023 16.3428 0.067457 0.362209 -2.871232
2007-01-16 08:54:20 51°9.08 2°36.715 16.3921 0.067457 0.362328 -2.871232
2007-01-16 08:55:20 51°9.016 2°36.41 16.38 0.067457 0.362433 -2.871232
2007-01-16 08:56:20 51°8.953 2°36.105 16.4172 0.067457 0.362558 -2.871232
2007-01-16 08:57:20 51°8.889 2°35.801 16.4005 0.067457 0.362677 -2.871232
2007-01-16 08:58:20 51°8.829 2°35.494 16.44 0.067354 0.362232 -2.871232
2007-01-16 08:59:20 51°8.768 2°35.187 16.418 0.067354 0.362351 -2.871232
2007-01-16 09:00:20 51°8.706 2°34.881 16.4467 0.067354 0.36247 -2.871232
2007-01-16 09:01:20 51°8.645 2°34.574 16.4659 0.067354 0.362589 -2.871232
2007-01-16 09:02:20 51°8.584 2°34.269 16.4881 0.067354 0.362715 -2.871232
2007-01-16 09:03:20 51°8.515 2°33.969 16.4637 0.067251 0.362262 -2.871232
2007-01-16 09:04:20 51°8.448 2°33.666 9.5708 3.809424 32.440214 -2.871232
2007-01-16 09:05:20 51°8.382 2°33.377 9.4664 3.698567 32.696771 -2.871232
2007-01-16 09:06:21 51°8.319 2°33.093 9.4645 3.691004 32.697177 -2.871232
2007-01-16 09:07:20 51°8.265 2°32.847 9.4332 3.681681 32.664013 -2.871232
2007-01-16 09:08:20 51°8.226 2°32.724 9.429 3.68396 32.717256 -2.871232
2007-01-16 09:09:20 51°8.219 2°32.657 9.4139 3.683028 32.725145 -2.871232
2007-01-16 09:10:20 51°8.23 2°32.609 9.4152 3.68738 32.780162 -2.871232
2007-01-16 09:11:20 51°8.259 2°32.589 9.3945 3.684168 32.756964 -2.871232
2007-01-16 09:12:20 51°8.288 2°32.589 9.3895 3.672461 32.662545 -2.871232
2007-01-16 09:13:20 51°8.311 2°32.597 9.39 3.6822 32.763205 -2.871232
2007-01-16 09:14:20 51°8.334 2°32.611 9.3898 3.686551 32.809721 -2.871232
2007-01-16 09:15:20 51°8.357 2°32.629 9.4026 3.684894 32.795025 -2.871232
2007-01-16 09:16:20 51°8.381 2°32.65 9.4075 3.688727 32.821813 -2.871232
2007-01-16 09:17:20 51°8.406 2°32.673 9.4124 3.690592 32.839417 -2.871232
2007-01-16 09:18:20 51°8.433 2°32.699 9.402 3.680853 32.746444 -2.871232
2007-01-16 09:19:20 51°8.46 2°32.725 9.3948 3.671736 32.664775 -2.871232
2007-01-16 09:20:20 51°8.487 2°32.752 9.3947 3.689971 32.852182 -2.871232
2007-01-16 09:21:20 51°8.515 2°32.78 9.3846 3.688002 32.832682 -2.871232
2007-01-16 09:22:20 51°8.543 2°32.81 9.3872 3.686655 32.826219 -2.871232
2007-01-16 09:23:20 51°8.571 2°32.841 9.3811 3.692561 32.889903 -2.871232
2007-01-16 09:24:20 51°8.599 2°32.872 9.3866 3.692043 32.886492 -2.871232
2007-01-16 09:25:20 51°8.626 2°32.902 9.3876 3.690592 32.873839 -2.871232
2007-01-16 09:26:21 51°8.653 2°32.933 9.3852 3.689142 32.857741 -2.871232
2007-01-16 09:27:20 51°8.679 2°32.963 9.381 3.691421 32.882054 -2.871232
2007-01-16 09:28:20 51°8.706 2°32.995 9.3877 3.688831 32.857244 -2.871232
2007-01-16 09:29:21 51°8.732 2°33.027 9.3821 3.68707 32.843232 -2.871232
2007-01-16 09:30:20 51°8.758 2°33.058 9.3828 3.681579 32.790535 -2.871232
2007-01-16 09:31:20 51°8.785 2°33.085 9.3813 3.689142 32.867215 -2.871232
2007-01-16 09:32:20 51°8.814 2°33.094 9.3891 3.690385 32.87954 -2.871232
2007-01-16 09:33:21 51°8.855 2°33.078 9.3837 3.685516 32.826109 -2.871232
2007-01-16 09:34:20 51°8.918 2°33.063 9.3853 3.689764 32.866486 -2.871232
2007-01-16 09:35:20 51°8.985 2°33.111 9.3814 3.680439 32.771512 -2.871232
2007-01-16 09:36:20 51°9.022 2°33.193 9.3781 3.689038 32.862743 -2.871232
2007-01-16 09:37:20 51°9.041 2°33.278 9.382 3.676709 32.742288 -2.871232
2007-01-16 09:38:20 51°9.056 2°33.364 9.3836 3.688106 32.8535 -2.871232
2007-01-16 09:39:20 51°9.08 2°33.446 9.3838 3.683962 32.810709 -2.871232
2007-01-16 09:40:21 51°9.11 2°33.533 9.3839 3.687381 32.846312 -2.871232
2007-01-16 09:41:20 51°9.131 2°33.621 9.3845 3.680957 32.780938 -2.871232
2007-01-16 09:42:21 51°9.142 2°33.714 9.3858 3.678885 32.761268 -2.871232
2007-01-16 09:43:20 51°9.145 2°33.801 9.3885 3.680232 32.773753 -2.871232
2007-01-16 09:44:20 51°9.141 2°33.885 9.3878 3.684998 32.820115 -2.871232
2007-01-16 09:45:20 51°9.131 2°33.963 9.3909 3.68479 32.816342 -2.871232
2007-01-16 09:46:20 51°9.118 2°34.032 9.3944 3.68593 32.823334 -2.871232
2007-01-16 09:47:20 51°9.1 2°34.086 9.396 3.67847 32.74858 -2.871232
2007-01-16 09:48:20 51°9.067 2°34.13 9.3964 3.683133 32.794761 -2.871232
2007-01-16 09:49:21 51°9.027 2°34.181 9.3967 3.684583 32.805692 -2.871232
2007-01-16 09:50:20 51°8.988 2°34.232 9.4016 3.686137 32.819368 -2.871232
2007-01-16 09:51:20 51°8.946 2°34.249 9.4022 3.68707 32.825165 -2.871232
2007-01-16 09:52:20 51°8.908 2°34.224 9.4009 3.688313 32.837481 -2.871232
2007-01-16 09:53:20 51°8.862 2°34.216 9.4086 3.68593 32.817315 -2.871232
2007-01-16 09:54:20 51°8.813 2°34.204 9.3995 3.68738 32.829964 -2.871232
2007-01-16 09:55:20 51°8.767 2°34.172 9.3966 3.686759 32.828106 -2.871232
2007-01-16 09:56:21 51°8.727 2°34.125 9.3946 3.688209 32.845919 -2.871232
2007-01-16 09:57:20 51°8.693 2°34.069 9.3941 3.687484 32.840453 -2.871232
2007-01-16 09:58:21 51°8.649 2°34.031 9.3985 3.683962 32.80641 -2.871232
2007-01-16 09:59:20 51°8.603 2°33.996 9.393 3.68852 32.849859 -2.871232
2007-01-16 10:00:20 51°8.557 2°33.96 9.3929 3.68075 32.772873 -2.871232
2007-01-16 10:01:20 51°8.511 2°33.923 9.3941 3.681786 32.783996 -2.871232
2007-01-16 10:02:21 51°8.467 2°33.876 9.3978 3.679196 32.757479 -2.871232
2007-01-16 10:03:20 51°8.434 2°33.815 9.3947 3.684998 32.812376 -2.871232
2007-01-16 10:04:20 51°8.408 2°33.744 9.3976 3.68334 32.797673 -2.871232
2007-01-16 10:05:21 51°8.381 2°33.672 9.3977 3.687484 32.839593 -2.871232
2007-01-16 10:06:20 51°8.355 2°33.605 9.3896 3.68334 32.800251 -2.871232
2007-01-16 10:07:20 51°8.328 2°33.538 9.3863 3.68479 32.818062 -2.871232
2007-01-16 10:08:20 51°8.303 2°33.476 9.381 3.687795 32.849559 -2.871232
2007-01-16 10:09:21 51°8.285 2°33.425 9.385 3.684998 32.827858 -2.871232
2007-01-16 10:10:20 51°8.269 2°33.381 9.3773 3.686863 32.847204 -2.871232
2007-01-16 10:11:20 51°8.251 2°33.334 9.3755 3.683858 32.820004 -2.871232
2007-01-16 10:12:21 51°8.233 2°33.283 9.3772 3.674534 32.727597 -2.871232
2007-01-16 10:13:20 51°8.216 2°33.23 9.3726 3.672772 32.71615 -2.871232
2007-01-16 10:14:21 51°8.199 2°33.176 9.3757 3.681268 32.79949 -2.871232
2007-01-16 10:15:20 51°8.183 2°33.124 9.3767 3.681786 32.802905 -2.871232
2007-01-16 10:16:21 51°8.17 2°33.069 9.3791 3.687795 32.859893 -2.871232
2007-01-16 10:17:20 51°8.171 2°33.025 9.376 3.687588 32.860424 -2.871232
2007-01-16 10:18:21 51°8.192 2°32.985 9.3782 3.687692 32.861451 -2.871232
2007-01-16 10:19:21 51°8.225 2°32.956 9.3734 3.687277 32.859065 -2.871232
2007-01-16 10:20:20 51°8.271 2°32.953 9.3694 3.686759 32.855652 -2.871232
2007-01-16 10:21:21 51°8.323 2°32.97 9.3662 3.686138 32.850349 -2.871232
2007-01-16 10:22:20 51°8.372 2°32.994 9.3678 3.685309 32.846437 -2.871232
2007-01-16 10:23:21 51°8.425 2°33.031 9.3681 3.68562 32.846074 -2.871232
2007-01-16 10:24:20 51°8.47 2°33.074 9.3696 3.686345 32.853265 -2.871232
2007-01-16 10:25:21 51°8.514 2°33.121 9.3754 3.687588 32.862147 -2.871232
2007-01-16 10:26:20 51°8.555 2°33.167 9.3774 3.688313 32.866753 -2.871232
2007-01-16 10:27:20 51°8.598 2°33.226 9.3796 3.688728 32.866553 -2.871232
2007-01-16 10:28:21 51°8.63 2°33.306 9.3813 3.690178 32.876624 -2.871232
2007-01-16 10:29:20 51°8.641 2°33.392 9.3771 3.689764 32.876825 -2.871232
2007-01-16 10:30:21 51°8.622 2°33.469 9.3772 3.689038 32.870496 -2.871232
2007-01-16 10:31:20 51°8.575 2°33.502 9.3774 3.688831 32.868442 -2.871232
2007-01-16 10:32:21 51°8.52 2°33.48 9.3734 3.688624 32.867249 -2.871232
2007-01-16 10:33:20 51°8.471 2°33.478 9.3752 3.688313 32.867614 -2.871232
2007-01-16 10:34:21 51°8.424 2°33.492 9.3664 3.687174 32.858899 -2.871232
2007-01-16 10:35:21 51°8.38 2°33.519 9.3731 3.686863 32.857541 -2.871232
2007-01-16 10:36:20 51°8.347 2°33.507 9.3725 3.686863 32.857541 -2.871232
2007-01-16 10:37:21 51°8.34 2°33.453 9.3767 3.687692 32.862312 -2.871232
2007-01-16 10:38:21 51°8.325 2°33.401 9.3838 3.688106 32.861252 -2.871232
2007-01-16 10:39:21 51°8.301 2°33.355 9.3828 3.688417 32.859165 -2.871232
2007-01-16 10:40:20 51°8.276 2°33.31 9.3793 3.687899 32.858336 -2.871232
2007-01-16 10:41:21 51°8.25 2°33.259 9.3829 3.687899 32.859198 -2.871232
2007-01-16 10:42:21 51°8.224 2°33.209 9.3779 3.687795 32.859032 -2.871232
2007-01-16 10:43:20 51°8.203 2°33.162 9.3774 3.687899 32.859198 -2.871232
2007-01-16 10:44:21 51°8.183 2°33.115 9.3789 3.688002 32.859363 -2.871232
2007-01-16 10:45:21 51°8.168 2°33.066 9.3791 3.688002 32.859363 -2.871232
2007-01-16 10:46:21 51°8.156 2°33.014 9.3783 3.688002 32.857641 -2.871232
2007-01-16 10:47:20 51°8.143 2°32.963 9.375 3.686966 32.849954 -2.871232
2007-01-16 10:48:21 51°8.13 2°32.911 9.3731 3.68593 32.844849 -2.871232
2007-01-16 10:49:20 51°8.118 2°32.859 9.3752 3.685412 32.840575 -2.871232
2007-01-16 10:50:21 51°8.105 2°32.804 9.3712 3.685516 32.841602 -2.871232
2007-01-16 10:51:21 51°8.091 2°32.754 9.3725 3.685827 32.844683 -2.871232
2007-01-16 10:52:21 51°8.074 2°32.707 9.3748 3.686345 32.847236 -2.871232
2007-01-16 10:53:21 51°8.058 2°32.658 9.3774 3.686759 32.852206 -2.871232
2007-01-16 10:54:21 51°8.041 2°32.61 9.3748 3.687484 32.856812 -2.871232
2007-01-16 10:55:21 51°8.023 2°32.562 9.3807 3.687795 32.860755 -2.871232
2007-01-16 10:56:20 51°8.005 2°32.515 9.38 3.687899 32.861782 -2.871232
2007-01-16 10:57:21 51°7.988 2°32.465 9.3799 3.688106 32.862113 -2.871232
2007-01-16 10:58:20 51°7.972 2°32.418 9.3772 3.687692 32.860589 -2.871232
2007-01-16 10:59:21 51°7.955 2°32.37 9.3748 3.68707 32.85701 -2.871232
2007-01-16 11:00:21 51°7.939 2°32.324 9.3723 3.686552 32.852736 -2.871232
2007-01-16 11:01:21 51°7.922 2°32.278 9.3708 3.686138 32.849488 -2.871232
2007-01-16 11:02:21 51°7.905 2°32.233 9.3723 3.685723 32.845379 -2.871232
2007-01-16 11:03:20 51°7.889 2°32.187 9.3784 3.685412 32.844019 -2.871232
2007-01-16 11:04:21 51°7.871 2°32.138 9.373 3.685412 32.843158 -2.871232
2007-01-16 11:05:20 51°7.852 2°32.09 9.3698 3.684998 32.838188 -2.871232
2007-01-16 11:06:21 51°7.83 2°32.043 9.379 3.684583 32.833218 -2.871232
2007-01-16 11:07:20 51°7.807 2°32.004 9.382 3.684791 32.827525 -2.871232
2007-01-16 11:08:21 51°7.812 2°31.942 9.374 3.684894 32.833717 -2.871232
2007-01-16 11:09:21 51°7.854 2°31.892 9.3815 3.68448 32.827887 -2.871232
2007-01-16 11:10:21 51°7.918 2°31.882 9.3846 3.68448 32.823584 -2.871232
2007-01-16 11:11:21 51°7.976 2°31.922 9.4029 3.685826 32.828329 -2.871232
2007-01-16 11:12:20 51°8.014 2°32.004 9.4095 3.689867 32.855458 -2.871232
2007-01-16 11:13:21 51°8.027 2°32.103 9.4093 3.692457 32.876815 -2.871232
2007-01-16 11:14:21 51°8.03 2°32.206 9.4069 3.691939 32.869961 -2.871232
2007-01-16 11:15:21 51°8.027 2°32.309 9.3988 3.689453 32.851352 -2.871232
2007-01-16 11:16:21 51°8.023 2°32.411 9.3915 3.687899 32.842839 -2.871232
2007-01-16 11:17:21 51°8.02 2°32.515 9.3831 3.68707 32.84151 -2.871232
2007-01-16 11:18:21 51°8.032 2°32.621 9.3791 3.686034 32.838128 -2.871232
2007-01-16 11:19:20 51°8.066 2°32.712 9.3751 3.686241 32.84707 -2.871232
2007-01-16 11:20:21 51°8.114 2°32.799 9.3738 3.686966 32.851676 -2.871232
2007-01-16 11:21:21 51°8.155 2°32.881 9.3776 3.68593 32.839683 -2.871232
2007-01-16 11:22:21 51°8.192 2°32.957 9.3753 3.687381 32.854923 -2.871232
2007-01-16 11:23:20 51°8.228 2°33.03 9.3796 3.687277 32.855619 -2.871232
2007-01-16 11:24:21 51°8.266 2°33.101 9.3763 3.687484 32.856812 -2.871232
2007-01-16 11:25:21 51°8.305 2°33.17 9.3835 3.687692 32.855421 -2.871232
2007-01-16 11:26:21 51°8.343 2°33.24 9.38 3.68821 32.858833 -2.871232
2007-01-16 11:27:21 51°8.373 2°33.315 9.3804 3.688106 32.86039 -2.871232
2007-01-16 11:28:21 51°8.389 2°33.382 9.3829 3.68852 32.861914 -2.871232
2007-01-16 11:29:21 51°8.4 2°33.444 9.3832 3.68852 32.862776 -2.871232
2007-01-16 11:30:21 51°8.407 2°33.503 9.3835 3.68852 32.860192 -2.871232
2007-01-16 11:31:21 51°8.409 2°33.558 9.3851 3.687588 32.854394 -2.871232
2007-01-16 11:32:21 51°8.412 2°33.6 9.3831 3.68707 32.850981 -2.871232
2007-01-16 11:33:21 51°8.421 2°33.634 9.3763 3.686759 32.850483 -2.871232
2007-01-16 11:34:21 51°8.432 2°33.666 9.3763 3.686552 32.847568 -2.871232
2007-01-16 11:35:20 51°8.446 2°33.694 9.3768 3.686345 32.846375 -2.871232
2007-01-16 11:36:21 51°8.456 2°33.736 9.3835 3.686552 32.848429 -2.871232
2007-01-16 11:37:21 51°8.444 2°33.8 9.3813 3.686759 32.847038 -2.871232
2007-01-16 11:38:21 51°8.434 2°33.852 9.3757 3.686345 32.844652 -2.871232
2007-01-16 11:39:20 51°8.434 2°33.893 9.3842 3.686345 32.844652 -2.871232
2007-01-16 11:40:21 51°8.44 2°33.929 9.3867 3.68821 32.855388 -2.871232
2007-01-16 11:41:21 51°8.429 2°33.962 9.4001 3.689038 32.861881 -2.871232
2007-01-16 11:42:21 51°8.406 2°33.898 9.3925 3.690489 32.870228 -2.871232
2007-01-16 11:43:21 51°8.476 2°33.855 9.3875 3.690489 32.871951 -2.871232
2007-01-16 11:44:21 51°8.546 2°33.912 9.3792 3.688417 32.860026 -2.871232
2007-01-16 11:45:21 51°8.591 2°34.012 9.3791 3.686759 32.848761 -2.871232
2007-01-16 11:46:21 51°8.632 2°34.11 9.3793 3.686552 32.84929 -2.871232
2007-01-16 11:47:21 51°8.675 2°34.204 9.3786 3.686759 32.849622 -2.871232
2007-01-16 11:48:21 51°8.722 2°34.287 9.3824 3.686759 32.850483 -2.871232
2007-01-16 11:49:21 51°8.756 2°34.363 9.3829 3.687381 32.85234 -2.871232
2007-01-16 11:50:21 51°8.776 2°34.428 9.3866 3.688002 32.856779 -2.871232
2007-01-16 11:51:21 51°8.793 2°34.485 9.3854 3.68821 32.858833 -2.871232
2007-01-16 11:52:21 51°8.81 2°34.542 9.3875 3.68852 32.858469 -2.871232
2007-01-16 11:53:21 51°8.826 2°34.599 9.3862 3.68852 32.85933 -2.871232
2007-01-16 11:54:21 51°8.843 2°34.657 9.3891 3.688831 32.862411 -2.871232
2007-01-16 11:55:20 51°8.861 2°34.713 9.3895 3.688935 32.861716 -2.871232
2007-01-16 11:56:21 51°8.879 2°34.772 9.3874 3.689038 32.861881 -2.871232
2007-01-16 11:57:21 51°8.896 2°34.829 9.388 3.686863 32.841178 -2.871232
2007-01-16 11:58:21 51°8.911 2°34.886 9.3927 3.689038 32.862743 -2.871232
2007-01-16 11:59:21 51°8.926 2°34.944 9.389 3.689246 32.863074 -2.871232
2007-01-16 12:00:21 51°8.936 2°35.004 9.3914 3.689142 32.862047 -2.871232
2007-01-16 12:01:21 51°8.941 2°35.067 9.3897 3.689142 32.861186 -2.871232
2007-01-16 12:02:21 51°8.941 2°35.13 9.3932 3.689038 32.862743 -2.871232
2007-01-16 12:03:21 51°8.938 2°35.193 9.3896 3.689246 32.86049 -2.871232
2007-01-16 12:04:21 51°8.935 2°35.257 9.3881 3.689038 32.860159 -2.871232
2007-01-16 12:05:21 51°8.934 2°35.322 9.3917 3.688831 32.858105 -2.871232
2007-01-16 12:06:21 51°8.937 2°35.389 9.3828 3.68821 32.855388 -2.871232
2007-01-16 12:07:21 51°8.949 2°35.458 9.3817 3.686966 32.845648 -2.871232
2007-01-16 12:08:21 51°8.967 2°35.526 9.3815 3.68593 32.837961 -2.871232
2007-01-16 12:09:21 51°8.987 2°35.593 9.3794 3.684894 32.830274 -2.871232
2007-01-16 12:10:21 51°9.009 2°35.659 9.3736 3.684273 32.824972 -2.871232
2007-01-16 12:11:21 51°9.034 2°35.723 9.372 3.683547 32.822946 -2.871232
2007-01-16 12:12:21 51°9.06 2°35.787 9.3717 3.683237 32.820726 -2.871232
2007-01-16 12:13:21 51°9.087 2°35.852 9.3743 3.683237 32.817283 -2.871232
2007-01-16 12:14:21 51°9.111 2°35.917 9.3729 3.682926 32.815923 -2.871232
2007-01-16 12:15:21 51°9.135 2°35.983 9.3687 3.682615 32.815423 -2.871232
2007-01-16 12:16:21 51°9.157 2°36.049 9.371 3.682719 32.813009 -2.871232
2007-01-16 12:17:21 51°9.178 2°36.115 9.3672 3.682201 32.811315 -2.871232
2007-01-16 12:18:21 51°9.201 2°36.181 9.3719 3.682201 32.810454 -2.871232
2007-01-16 12:19:21 51°9.225 2°36.244 9.3676 3.681786 32.807206 -2.871232
2007-01-16 12:20:21 51°9.254 2°36.304 9.3671 3.681475 32.804985 -2.871232
2007-01-16 12:21:21 51°9.287 2°36.361 9.3685 3.681165 32.803624 -2.871232
2007-01-16 12:22:21 51°9.319 2°36.419 9.3666 3.681164 32.802764 -2.871232
2007-01-16 12:23:21 51°9.349 2°36.481 9.3705 3.681372 32.805678 -2.871232
2007-01-16 12:24:21 51°9.376 2°36.543 9.3695 3.681579 32.806012 -2.871232
2007-01-16 12:25:21 51°9.406 2°36.602 9.3696 3.681786 32.807206 -2.871232
2007-01-16 12:26:21 51°9.442 2°36.655 9.3758 3.682097 32.810288 -2.871232
2007-01-16 12:27:21 51°9.474 2°36.714 9.3757 3.682719 32.813009 -2.871232
2007-01-16 12:28:21 51°9.503 2°36.775 9.3755 3.683133 32.817117 -2.871232
2007-01-16 12:29:21 51°9.531 2°36.836 9.3788 3.683755 32.819837 -2.871232
2007-01-16 12:30:21 51°9.561 2°36.897 9.3827 3.684169 32.822224 -2.871232
2007-01-16 12:31:21 51°9.587 2°36.96 9.3884 3.684687 32.823917 -2.871232
2007-01-16 12:32:21 51°9.6 2°37.023 9.3844 3.685412 32.826803 -2.871232
2007-01-16 12:33:21 51°9.606 2°37.083 9.382 3.685412 32.828524 -2.871232
2007-01-16 12:34:21 51°9.609 2°37.143 9.3849 3.684791 32.824084 -2.871232
2007-01-16 12:35:21 51°9.609 2°37.204 9.3822 3.683755 32.818117 -2.871232
2007-01-16 12:36:21 51°9.608 2°37.257 9.376 3.683029 32.811788 -2.871232
2007-01-16 12:37:21 51°9.61 2°37.299 9.3682 3.681786 32.803765 -2.871232
2007-01-16 12:38:21 51°9.611 2°37.336 9.3642 3.68075 32.796935 -2.871232
2007-01-16 12:39:21 51°9.583 2°37.367 9.3645 3.679818 32.789412 -2.871232
2007-01-16 12:40:21 51°9.549 2°37.282 9.342 3.677538 32.776272 -2.871232
2007-01-16 12:41:21 51°9.475 2°37.049 9.35 3.675156 32.766398 -2.871232
2007-01-16 12:42:21 51°9.36 2°36.778 9.3553 3.675984 32.76602 -2.871232
2007-01-16 12:43:21 51°9.26 2°36.468 9.3551 3.675984 32.76688 -2.871232
2007-01-16 12:44:21 51°9.171 2°36.15 9.3588 3.676813 32.77252 -2.871232
2007-01-16 12:45:21 51°9.091 2°35.823 9.366 3.677953 32.779521 -2.871232
2007-01-16 12:46:21 51°9.013 2°35.496 9.3742 3.680232 32.79266 -2.871232
2007-01-16 12:47:21 51°8.936 2°35.168 9.3778 3.682511 32.809234 -2.871232
2007-01-16 12:48:21 51°8.859 2°34.842 9.3917 3.685309 32.830078 -2.871232
2007-01-16 12:49:21 51°8.782 2°34.515 9.394 3.686863 32.839457 -2.871232
2007-01-16 12:50:21 51°8.704 2°34.189 9.3955 3.686759 32.835848 -2.871232
2007-01-16 12:51:21 51°8.626 2°33.861 9.3922 3.687795 32.847837 -2.871232
2007-01-16 12:52:21 51°8.549 2°33.532 9.3868 3.687277 32.846146 -2.871232
2007-01-16 12:53:21 51°8.487 2°33.234 9.3897 3.686966 32.843066 -2.871232
2007-01-16 12:54:21 51°8.44 2°33.045 9.3831 3.68593 32.833658 -2.871232
2007-01-16 12:55:21 51°8.394 2°32.89 9.3838 3.685619 32.833159 -2.871232
2007-01-16 12:56:21 51°8.319 2°32.786 9.4055 3.686862 32.830853 -2.871232
2007-01-16 12:57:21 51°8.256 2°32.667 9.4048 3.686655 32.83224 -2.871232
2007-01-16 12:58:21 51°8.213 2°32.61 9.402 3.687588 32.832017 -2.871232
2007-01-16 12:59:21 51°8.191 2°32.588 9.3968 3.686862 32.829132 -2.871232
2007-01-16 13:00:21 51°8.183 2°32.588 9.4001 3.686552 32.825193 -2.871232
2007-01-16 13:01:21 51°8.183 2°32.599 9.398 3.686552 32.824333 -2.871232
2007-01-16 13:02:21 51°8.188 2°32.614 9.3931 3.686344 32.824 -2.871232
2007-01-16 13:03:21 51°8.196 2°32.629 9.3933 3.685723 32.823001 -2.871232
2007-01-16 13:04:21 51°8.205 2°32.645 9.397 3.68593 32.824194 -2.871232
2007-01-16 13:05:21 51°8.215 2°32.661 9.3956 3.685723 32.821281 -2.871232
2007-01-16 13:06:21 51°8.223 2°32.677 9.3994 3.685619 32.820255 -2.871232
2007-01-16 13:07:21 51°8.232 2°32.693 9.3984 3.685826 32.818868 -2.871232
2007-01-16 13:08:21 51°8.24 2°32.708 9.4014 3.685619 32.819395 -2.871232
2007-01-16 13:09:21 51°8.243 2°32.738 9.4002 3.685826 32.818868 -2.871232
2007-01-16 13:10:21 51°8.202 2°32.785 9.402 3.686137 32.81507 -2.871232
2007-01-16 13:11:21 51°8.145 2°32.704 9.3839 3.68593 32.823334 -2.871232
2007-01-16 13:12:21 51°8.074 2°32.579 9.3774 3.685619 32.836602 -2.871232
2007-01-16 13:13:21 51°7.996 2°32.447 9.3797 3.686034 32.839849 -2.871232
2007-01-16 13:14:21 51°7.918 2°32.313 9.3763 3.686137 32.840876 -2.871232
2007-01-16 13:15:21 51°7.879 2°32.171 9.3858 3.686345 32.839487 -2.871232
2007-01-16 13:16:21 51°7.945 2°32.118 9.3912 3.686655 32.842568 -2.871232
2007-01-16 13:17:21 51°8.028 2°32.18 9.3997 3.684998 32.814096 -2.871232
2007-01-16 13:18:21 51°8.123 2°32.302 9.3907 3.685412 32.812184 -2.871232
2007-01-16 13:19:21 51°8.257 2°32.429 9.4106 3.686344 32.818841 -2.871232
2007-01-16 13:20:21 51°8.391 2°32.583 9.4199 3.688209 32.826996 -2.871232
2007-01-16 13:21:21 51°8.469 2°32.715 9.4223 3.689038 32.830906 -2.871232
2007-01-16 13:22:21 51°8.484 2°32.787 9.4185 3.690074 32.840305 -2.871232
2007-01-16 13:23:21 51°8.487 2°32.811 9.4185 3.690385 32.847683 -2.871232
2007-01-16 13:24:21 51°8.49 2°32.829 9.4203 3.690903 32.849373 -2.871232
2007-01-16 13:25:21 51°8.495 2°32.842 9.421 3.691006 32.851259 -2.871232
2007-01-16 13:26:21 51°8.501 2°32.853 9.419 3.690903 32.849373 -2.871232
2007-01-16 13:27:21 51°8.508 2°32.862 9.4191 3.690385 32.849404 -2.871232
2007-01-16 13:28:21 51°8.516 2°32.87 9.4245 3.690696 32.848181 -2.871232
2007-01-16 13:29:21 51°8.525 2°32.878 9.4229 3.690488 32.848709 -2.871232
2007-01-16 13:30:21 51°8.535 2°32.884 9.4186 3.690592 32.848875 -2.871232
2007-01-16 13:31:21 51°8.545 2°32.89 9.4193 3.690696 32.849901 -2.871232
2007-01-16 13:32:21 51°8.556 2°32.896 9.4204 3.690696 32.849901 -2.871232
2007-01-16 13:33:21 51°8.567 2°32.902 9.4183 3.690799 32.849207 -2.871232
2007-01-16 13:34:21 51°8.579 2°32.907 9.4204 3.691006 32.851259 -2.871232
2007-01-16 13:35:21 51°8.59 2°32.911 9.4217 3.690799 32.850067 -2.871232
2007-01-16 13:36:21 51°8.6 2°32.917 9.4204 3.691317 32.850897 -2.871232
2007-01-16 13:37:21 51°8.611 2°32.923 9.4186 3.69111 32.852285 -2.871232
2007-01-16 13:38:21 51°8.621 2°32.93 9.4291 3.691421 32.851063 -2.871232
2007-01-16 13:39:21 51°8.63 2°32.936 9.4267 3.691835 32.850866 -2.871232
2007-01-16 13:40:21 51°8.639 2°32.941 9.43 3.691732 32.8507 -2.871232
2007-01-16 13:41:21 51°8.65 2°32.947 9.4302 3.691835 32.850006 -2.871232
2007-01-16 13:42:21 51°8.66 2°32.951 9.4341 3.691732 32.84984 -2.871232
2007-01-16 13:43:21 51°8.67 2°32.956 9.4319 3.691939 32.849312 -2.871232
2007-01-16 13:44:21 51°8.681 2°32.961 9.4307 3.692042 32.849478 -2.871232
2007-01-16 13:45:21 51°8.691 2°32.965 9.4316 3.692042 32.849478 -2.871232
2007-01-16 13:46:21 51°8.702 2°32.97 9.4281 3.692042 32.851198 -2.871232
2007-01-16 13:47:21 51°8.713 2°32.975 9.4286 3.692042 32.849478 -2.871232
2007-01-16 13:48:21 51°8.724 2°32.98 9.4262 3.691835 32.850006 -2.871232
2007-01-16 13:49:21 51°8.734 2°32.985 9.4287 3.691732 32.848981 -2.871232
2007-01-16 13:50:21 51°8.741 2°33.012 9.4337 3.69225 32.84981 -2.871232
2007-01-16 13:51:21 51°8.77 2°33.062 9.423 3.691939 32.851892 -2.871232
2007-01-16 13:52:21 51°8.869 2°33.18 9.4204 3.69111 32.849705 -2.871232
2007-01-16 13:53:21 51°9.013 2°33.397 9.4287 3.691317 32.854337 -2.871232
2007-01-16 13:54:21 51°9.159 2°33.659 9.4299 3.692768 32.860099 -2.871232
2007-01-16 13:55:21 51°9.235 2°33.992 9.4221 3.694115 32.870854 -2.871232
2007-01-16 13:56:21 51°9.313 2°34.335 9.4096 3.693597 32.878634 -2.871232
2007-01-16 13:57:21 51°9.42 2°34.648 9.4003 3.690799 32.862975 -2.871232
2007-01-16 13:58:21 51°9.61 2°34.854 9.3948 3.690489 32.863339 -2.871232
2007-01-16 13:59:21 51°9.798 2°35.069 9.3926 3.688831 32.852939 -2.871232
2007-01-16 14:00:21 51°9.982 2°35.292 9.4022 3.689556 32.860126 -2.871232
2007-01-16 14:01:21 51°10.167 2°35.517 9.4115 3.692561 32.881287 -2.871232
2007-01-16 14:02:21 51°10.352 2°35.745 9.4215 3.695462 32.898829 -2.871232
2007-01-16 14:03:21 51°10.53 2°35.989 9.4424 3.699709 32.927118 -2.871232
2007-01-16 14:04:21 51°10.693 2°36.255 9.4436 3.705097 32.969263 -2.871232
2007-01-16 14:05:21 51°10.851 2°36.524 9.4443 3.70603 32.975046 -2.871232
2007-01-16 14:06:21 51°11.01 2°36.792 9.43 3.702196 32.952609 -2.871232
2007-01-16 14:07:21 51°11.172 2°37.056 9.4262 3.701678 32.949202 -2.871232
2007-01-16 14:08:21 51°11.331 2°37.324 9.4318 3.703025 32.960819 -2.871232
2007-01-16 14:09:21 51°11.488 2°37.594 9.4402 3.706133 32.988156 -2.871232
2007-01-16 14:10:21 51°11.65 2°37.86 9.4385 3.708827 33.009658 -2.871232
2007-01-16 14:11:21 51°11.811 2°38.123 9.4502 3.709034 33.009983 -2.871232
2007-01-16 14:12:21 51°11.97 2°38.387 9.4411 3.714008 33.051465 -2.871232
2007-01-16 14:13:21 51°12.127 2°38.651 9.4275 3.715458 33.077083 -2.871232
2007-01-16 14:14:21 51°12.268 2°38.884 9.4207 3.708724 33.019002 -2.871232
2007-01-16 14:15:21 51°12.333 2°39.037 9.406 3.704787 32.989493 -2.871232
2007-01-16 14:16:21 51°12.373 2°39.123 9.3926 3.702093 32.980937 -2.871232
2007-01-16 14:17:21 51°12.423 2°39.21 9.3909 3.700953 32.974822 -2.871232
2007-01-16 14:18:21 51°12.47 2°39.291 9.3929 3.700643 32.977789 -2.871232
2007-01-16 14:19:21 51°12.513 2°39.358 9.3872 3.701471 32.983416 -2.871232
2007-01-16 14:20:21 51°12.555 2°39.387 9.389 3.701471 32.991198 -2.871232
2007-01-16 14:21:21 51°12.577 2°39.389 9.3941 3.702611 32.995583 -2.871232
2007-01-16 14:22:21 51°12.594 2°39.391 9.3909 3.702818 32.998503 -2.871232
2007-01-16 14:23:21 51°12.608 2°39.39 9.3846 3.703026 33.001423 -2.871232
2007-01-16 14:24:21 51°12.619 2°39.387 9.3821 3.703129 33.003315 -2.871232
2007-01-16 14:25:21 51°12.622 2°39.372 9.3838 3.702922 33.00299 -2.871232
2007-01-16 14:26:21 51°12.63 2°39.375 9.383 3.702922 33.005586 -2.871232
2007-01-16 14:27:21 51°12.633 2°39.395 9.3789 3.70344 33.005533 -2.871232
2007-01-16 14:28:21 51°12.645 2°39.365 9.3781 3.703026 33.007479 -2.871232
2007-01-16 14:29:21 51°12.639 2°39.389 9.3837 3.703129 33.005911 -2.871232
2007-01-16 14:30:21 51°12.602 2°39.412 9.3791 3.703544 33.009156 -2.871232
2007-01-16 14:31:21 51°12.557 2°39.395 9.3754 3.70344 33.013321 -2.871232
2007-01-16 14:32:21 51°12.546 2°39.373 9.3735 3.703647 33.021437 -2.871232
2007-01-16 14:33:21 51°12.548 2°39.356 9.3717 3.703751 33.021599 -2.871232
2007-01-16 14:34:21 51°12.555 2°39.351 9.3728 3.703544 33.022141 -2.871232
2007-01-16 14:35:21 51°12.56 2°39.358 9.3767 3.704062 33.025549 -2.871232
2007-01-16 14:36:21 51°12.564 2°39.361 9.376 3.704476 33.027063 -2.871232
2007-01-16 14:37:21 51°12.568 2°39.361 9.3805 3.704891 33.031175 -2.871232
2007-01-16 14:38:21 51°12.57 2°39.361 9.3723 3.704994 33.03307 -2.871232
2007-01-16 14:39:21 51°12.572 2°39.36 9.3733 3.704994 33.033936 -2.871232
2007-01-16 14:40:21 51°12.573 2°39.359 9.3734 3.704891 33.035507 -2.871232
2007-01-16 14:41:21 51°12.574 2°39.357 9.3757 3.705098 33.037563 -2.871232
2007-01-16 14:42:21 51°12.576 2°39.353 9.3769 3.705098 33.037563 -2.871232
2007-01-16 14:43:21 51°12.579 2°39.348 9.3799 3.705409 33.036316 -2.871232
2007-01-16 14:44:21 51°12.584 2°39.343 9.3766 3.705202 33.035992 -2.871232
2007-01-16 14:45:21 51°12.59 2°39.335 9.3778 3.705305 33.035288 -2.871232
2007-01-16 14:46:21 51°12.613 2°39.315 9.3834 3.705512 33.035611 -2.871232
2007-01-16 14:47:21 51°12.65 2°39.306 9.3762 3.705823 33.037829 -2.871232
2007-01-16 14:48:21 51°12.688 2°39.335 9.3767 3.705927 33.036259 -2.871232
2007-01-16 14:49:21 51°12.693 2°39.344 9.3761 3.705202 33.037725 -2.871232
2007-01-16 14:50:21 51°12.677 2°39.37 9.3791 3.705202 33.035992 -2.871232
2007-01-16 14:51:21 51°12.628 2°39.371 9.3687 3.70572 33.0394 -2.871232
2007-01-16 14:52:21 51°12.591 2°39.393 9.3746 3.704684 33.032584 -2.871232
2007-01-16 14:53:21 51°12.561 2°39.406 9.3686 3.704165 33.024845 -2.871232
2007-01-16 14:54:21 51°12.551 2°39.399 9.3713 3.702922 33.015972 -2.871232
2007-01-16 14:55:21 51°12.551 2°39.392 9.3664 3.702404 33.012563 -2.871232
2007-01-16 14:56:21 51°12.554 2°39.385 9.3684 3.70199 33.008451 -2.871232
2007-01-16 14:57:21 51°12.559 2°39.377 9.37 3.701886 33.007423 -2.871232
2007-01-16 14:58:21 51°12.564 2°39.371 9.3694 3.701886 33.006557 -2.871232
2007-01-16 14:59:21 51°12.57 2°39.365 9.3687 3.701575 33.00607 -2.871232
2007-01-16 15:00:21 51°12.574 2°39.36 9.3724 3.701782 33.006395 -2.871232
2007-01-16 15:01:21 51°12.578 2°39.355 9.3741 3.702301 33.008938 -2.871232
2007-01-16 15:02:21 51°12.576 2°39.362 9.378 3.702093 33.006017 -2.871232
2007-01-16 15:03:21 51°12.561 2°39.383 9.3674 3.701886 33.003095 -2.871232
2007-01-16 15:04:21 51°12.551 2°39.392 9.372 3.701368 32.998821 -2.871232
2007-01-16 15:05:21 51°12.548 2°39.389 9.3707 3.700436 32.9913 -2.871232
2007-01-16 15:06:21 51°12.55 2°39.382 9.3741 3.700021 32.988053 -2.871232
2007-01-16 15:07:21 51°12.553 2°39.373 9.3795 3.699917 32.985295 -2.871232
2007-01-16 15:08:21 51°12.557 2°39.364 9.3791 3.700435 32.982651 -2.871232
2007-01-16 15:09:21 51°12.562 2°39.353 9.3806 3.700125 32.979568 -2.871232
2007-01-16 15:10:21 51°12.567 2°39.342 9.3806 3.700228 32.978866 -2.871232
2007-01-16 15:11:21 51°12.572 2°39.332 9.38 3.700125 32.977838 -2.871232
2007-01-16 15:12:21 51°12.576 2°39.336 9.3784 3.699814 32.978214 -2.871232
2007-01-16 15:13:21 51°12.582 2°39.419 9.3791 3.700021 32.976811 -2.871232
2007-01-16 15:14:21 51°12.629 2°39.632 9.3706 3.699192 32.973777 -2.871232
2007-01-16 15:15:21 51°12.702 2°39.927 9.4068 3.613619 32.128206 -2.871232
2007-01-16 15:16:21 51°12.779 2°40.24 9.4281 3.585753 31.811302 -2.871232
2007-01-16 15:17:21 51°12.856 2°40.553 9.4432 3.645628 32.378585 -2.871232
2007-01-16 15:18:21 51°12.928 2°40.87 9.4369 3.662515 32.532659 -2.871232
2007-01-16 15:19:21 51°13.003 2°41.186 9.4532 3.689348 32.791057 -2.871232
2007-01-16 15:20:21 51°13.076 2°41.503 9.4348 3.690488 32.808333 -2.871232
2007-01-16 15:21:21 51°13.147 2°41.818 9.4508 3.684479 32.766039 -2.871232
2007-01-16 15:22:21 51°13.221 2°42.14 9.4834 3.690799 32.843188 -2.871232
2007-01-16 15:23:21 51°13.296 2°42.463 9.4505 3.681474 32.701234 -2.871232
2007-01-16 15:24:21 51°13.367 2°42.787 9.4282 3.686965 32.779492 -2.871232
2007-01-16 15:25:21 51°13.443 2°43.107 9.4375 3.691835 32.843129 -2.871232
2007-01-16 15:26:21 51°13.517 2°43.428 9.4414 3.691524 32.840912 -2.871232
2007-01-16 15:27:21 51°13.594 2°43.747 9.4548 3.68479 32.768257 -2.871232
2007-01-16 15:28:21 51°13.668 2°44.063 9.4349 3.681267 32.733407 -2.871232
2007-01-16 15:29:21 51°13.741 2°44.386 9.4237 3.686551 32.796839 -2.871232
2007-01-16 15:30:21 51°13.812 2°44.715 9.4177 3.68852 32.830934 -2.871232
2007-01-16 15:31:21 51°13.886 2°45.039 9.3931 3.680957 32.758618 -2.871232
2007-01-16 15:32:21 51°13.961 2°45.357 9.4058 3.683133 32.793042 -2.871232
2007-01-16 15:33:21 51°14.032 2°45.682 9.408 3.677745 32.733678 -2.871232
2007-01-16 15:34:21 51°14.107 2°46.003 9.4117 3.681475 32.776622 -2.871232
2007-01-16 15:35:21 51°14.173 2°46.328 9.4031 3.680957 32.762908 -2.871232
2007-01-16 15:36:21 51°14.218 2°46.66 9.4005 3.685101 32.798794 -2.871232
2007-01-16 15:37:21 51°14.261 2°46.993 9.3832 3.677331 32.739866 -2.871232
2007-01-16 15:38:21 51°14.304 2°47.327 9.3746 3.670804 32.681221 -2.871232
2007-01-16 15:39:21 51°14.344 2°47.665 9.3686 3.679921 32.788719 -2.871232
2007-01-16 15:40:21 51°14.373 2°48.004 9.3338 3.664795 32.662805 -2.871232
2007-01-16 15:41:21 51°14.403 2°48.341 9.3067 3.675156 32.786187 -2.871232
2007-01-16 15:42:21 51°14.435 2°48.678 9.2914 3.661274 32.676764 -2.871232
2007-01-16 15:43:21 51°14.47 2°49.013 9.267 3.666765 32.742467 -2.871232
2007-01-16 15:44:21 51°14.502 2°49.344 9.2592 3.666558 32.752465 -2.871232
2007-01-16 15:45:21 51°14.536 2°49.679 9.2503 3.661896 32.715609 -2.871232
2007-01-16 15:46:21 51°14.569 2°50.015 9.2541 3.658788 32.689885 -2.871232
2007-01-16 15:47:21 51°14.602 2°50.35 9.2445 3.660031 32.706543 -2.871232
2007-01-16 15:48:21 51°14.622 2°50.688 9.2399 3.655473 32.662957 -2.871232
2007-01-16 15:49:21 51°14.635 2°51.026 9.2407 3.653712 32.654048 -2.871232
2007-01-16 15:50:21 51°14.651 2°51.365 9.2464 3.645424 32.570823 -2.871232
2007-01-16 15:51:21 51°14.666 2°51.705 9.2476 3.641176 32.523486 -2.871232
2007-01-16 15:52:21 51°14.683 2°52.045 9.2492 3.6505 32.610967 -2.871232
2007-01-16 15:53:21 51°14.7 2°52.384 9.2552 3.647081 32.577003 -2.871232
2007-01-16 15:54:21 51°14.716 2°52.725 9.2422 3.649257 32.598616 -2.871232
2007-01-16 15:55:21 51°14.734 2°53.067 9.2043 3.617557 32.308552 -2.871232
2007-01-16 15:56:21 51°14.741 2°53.409 9.2034 3.597047 32.120221 -2.871232
2007-01-16 15:57:21 51°14.725 2°53.756 9.1961 3.608752 32.244069 -2.871232
2007-01-16 15:58:21 51°14.681 2°54.094 9.2098 3.620458 32.356098 -2.871232
2007-01-16 15:59:21 51°14.606 2°54.367 9.2075 3.623876 32.384094 -2.871232
2007-01-16 16:00:21 51°14.531 2°54.605 9.2201 3.628538 32.427852 -2.871232
2007-01-16 16:01:21 51°14.449 2°54.831 9.22 3.632371 32.461667 -2.871232